Time;durP1;ratioP1;P1;durP2;ratioP2;P2;SDS_P1;SDS_P2;PMS_P1;PMS_P2;Temp;Humidity;BMP_temperature;BMP_pressure;BME280_temperature;BME280_humidity;BME280_pressure;Samples;Min_cycle;Max_cycle;Signal;HPM_P1;HPM_P2
2021/05/28 00:00:08;;;;;;;103.57;46.38;;;;;;;18.13;83.07;99988.50;5029285;28;20045;-68
2021/05/28 00:02:36;;;;;;;103.75;44.38;;;;;;;18.16;83.04;99986.63;5013052;28;20037;-67
2021/05/28 00:05:04;;;;;;;196.02;49.25;;;;;;;18.05;83.49;99987.97;5044409;28;20045;-68
2021/05/28 00:07:32;;;;;;;152.93;49.28;;;;;;;17.90;83.91;99987.84;4996986;28;20068;-68
2021/05/28 00:09:58;;;;;;;138.02;46.63;;;;;;;18.03;83.06;99979.16;5028901;28;20041;-69
2021/05/28 00:12:25;;;;;;;106.10;45.03;;;;;;;18.02;82.64;99979.22;5046327;28;20709;-66
2021/05/28 00:14:52;;;;;;;116.50;46.67;;;;;;;17.76;82.72;99928.56;5011714;28;20053;-65
2021/05/28 00:17:18;;;;;;;96.65;42.00;;;;;;;18.22;81.88;99980.94;5046712;28;20447;-66
2021/05/28 00:19:44;;;;;;;99.88;41.78;;;;;;;18.28;81.08;99973.50;5046913;28;20069;-67
2021/05/28 00:22:10;;;;;;;104.30;38.70;;;;;;;18.21;81.09;99980.09;5044297;28;20098;-69
2021/05/28 00:24:35;;;;;;;90.22;35.83;;;;;;;18.20;80.67;99977.47;5045812;28;20036;-65
2021/05/28 00:27:03;;;;;;;82.60;37.60;;;;;;;18.22;80.81;99972.91;5046672;28;20052;-65
2021/05/28 00:29:29;;;;;;;81.60;36.30;;;;;;;18.35;79.84;99979.47;5045694;28;20059;-65
2021/05/28 00:31:57;;;;;;;75.55;35.33;;;;;;;18.28;79.73;99961.88;5045493;28;20520;-65
2021/05/28 00:34:23;;;;;;;73.05;35.42;;;;;;;18.42;79.52;99973.72;5045183;28;20088;-66
2021/05/28 00:36:49;;;;;;;66.93;34.33;;;;;;;18.34;79.20;99961.56;5046572;28;20140;-66
2021/05/28 00:39:15;;;;;;;86.07;38.22;;;;;;;18.07;80.58;99971.81;5041999;28;20518;-72
2021/05/28 00:41:41;;;;;;;78.97;36.40;;;;;;;18.29;79.54;99967.19;5044553;28;20493;-65
2021/05/28 00:44:06;;;;;;;71.18;36.85;;;;;;;18.22;79.39;99970.22;5046753;28;20040;-65
2021/05/28 00:46:32;;;;;;;72.40;37.50;;;;;;;18.20;79.46;99962.25;5046516;28;20041;-64
2021/05/28 00:48:58;;;;;;;75.15;38.13;;;;;;;18.04;79.84;99967.47;5044164;28;20049;-64
2021/05/28 00:51:24;;;;;;;75.18;38.30;;;;;;;17.92;80.58;99972.53;5047087;28;20033;-65
2021/05/28 00:53:51;;;;;;;131.85;40.28;;;;;;;17.63;81.12;99956.91;4992985;28;20117;-66
2021/05/28 00:56:19;;;;;;;84.72;42.40;;;;;;;17.69;81.32;99975.41;5005436;28;20103;-74
2021/05/28 00:58:48;;;;;;;138.55;41.95;;;;;;;17.29;83.17;99965.56;5047473;28;20033;-64
2021/05/28 01:01:13;;;;;;;85.45;41.33;;;;;;;17.52;81.69;99960.06;5050234;28;20086;-65
2021/05/28 01:03:39;;;;;;;102.13;41.88;;;;;;;17.46;82.37;99964.84;5050284;28;20535;-65
2021/05/28 01:06:05;;;;;;;124.97;41.22;;;;;;;17.42;82.51;99966.81;5048682;28;20095;-66
2021/05/28 01:08:31;;;;;;;76.78;43.15;;;;;;;17.36;82.72;99969.72;5031194;28;20041;-67
2021/05/28 01:10:57;;;;;;;82.97;41.63;;;;;;;17.38;82.43;99962.47;5055906;28;20237;-68
2021/05/28 01:13:22;;;;;;;109.07;43.13;;;;;;;17.33;82.54;99967.16;5057407;28;20048;-69
2021/05/28 01:15:48;;;;;;;92.28;43.75;;;;;;;17.29;82.69;99962.00;5048419;28;20095;-67
2021/05/28 01:18:14;;;;;;;81.00;42.22;;;;;;;17.15;83.26;99959.94;5048782;28;20045;-66
2021/05/28 01:20:40;;;;;;;129.10;43.80;;;;;;;16.93;83.54;99961.78;5050066;28;20037;-67
2021/05/28 01:23:06;;;;;;;106.28;45.22;;;;;;;16.68;84.58;99952.16;5022163;28;20045;-72
2021/05/28 01:25:32;;;;;;;117.03;50.45;;;;;;;16.76;84.75;99952.72;5049992;28;20044;-67
2021/05/28 01:27:59;;;;;;;111.68;47.45;;;;;;;16.79;84.33;99955.28;5047213;28;20472;-73
2021/05/28 01:30:26;;;;;;;101.57;45.13;;;;;;;16.73;84.72;99961.75;5049892;28;20168;-71
2021/05/28 01:32:52;;;;;;;108.30;47.75;;;;;;;16.50;85.59;99951.13;5047573;28;20413;-72
2021/05/28 01:35:18;;;;;;;182.07;50.30;;;;;;;16.41;85.50;99943.47;5049238;28;20044;-71
2021/05/28 01:37:46;;;;;;;90.13;47.30;;;;;;;16.50;85.73;99959.16;5048781;28;20044;-71
2021/05/28 01:40:12;;;;;;;102.95;46.90;;;;;;;16.43;85.52;99948.75;5035060;28;20143;-74
2021/05/28 01:42:38;;;;;;;107.35;45.08;;;;;;;16.52;85.33;99964.44;5029039;28;20920;-70
2021/05/28 01:45:06;;;;;;;189.02;50.75;;;;;;;16.42;85.64;99960.41;5049600;28;20132;-71
2021/05/28 01:47:33;;;;;;;85.55;46.28;;;;;;;16.70;84.55;99964.56;5032106;28;20046;-69
2021/05/28 01:49:59;;;;;;;112.70;46.33;;;;;;;16.45;85.28;99954.91;5046849;28;20167;-70
2021/05/28 01:52:26;;;;;;;140.40;50.25;;;;;;;16.34;85.89;99938.41;5046100;28;20048;-70
2021/05/28 01:54:52;;;;;;;102.00;47.45;;;;;;;16.33;85.74;99934.84;5047487;28;20053;-68
2021/05/28 01:57:19;;;;;;;82.82;45.92;;;;;;;16.41;85.79;99945.25;5045899;28;20052;-71
2021/05/28 01:59:45;;;;;;;119.07;48.03;;;;;;;16.32;86.14;99972.38;5032154;28;20143;-71
2021/05/28 02:02:12;;;;;;;123.05;49.35;;;;;;;16.45;85.91;99963.81;5048014;28;20461;-70
2021/05/28 02:04:39;;;;;;;109.45;49.47;;;;;;;16.38;85.79;99943.56;5025698;28;20033;-70
2021/05/28 02:07:06;;;;;;;100.32;48.47;;;;;;;16.57;85.49;99955.28;5040426;28;20180;-71
2021/05/28 02:09:44;;;;;;;87.30;45.88;;;;;;;16.86;84.53;99946.91;5044703;28;20047;-69
2021/05/28 02:12:10;;;;;;;96.68;46.28;;;;;;;16.93;83.75;99950.22;5027966;28;20033;-70
2021/05/28 02:14:35;;;;;;;94.43;45.10;;;;;;;16.75;84.38;99930.44;5043654;28;20464;-71
2021/05/28 02:17:02;;;;;;;78.30;43.05;;;;;;;17.10;83.65;99953.03;5045614;28;20452;-69
2021/05/28 02:19:28;;;;;;;119.97;42.67;;;;;;;17.18;83.51;99946.38;5045457;28;20131;-70
2021/05/28 02:21:54;;;;;;;74.13;38.58;;;;;;;17.43;82.28;99944.41;5044812;28;20431;-73
2021/05/28 02:24:22;;;;;;;75.70;38.20;;;;;;;17.40;81.93;99947.22;5047007;28;20199;-68
2021/05/28 02:26:50;;;;;;;75.25;36.00;;;;;;;17.10;83.09;99939.63;5046185;28;20044;-70
2021/05/28 02:29:16;;;;;;;85.20;37.38;;;;;;;17.08;83.10;99946.84;5047480;28;20139;-68
2021/05/28 02:31:42;;;;;;;75.80;35.45;;;;;;;17.18;82.63;99941.00;5045744;28;20059;-72
2021/05/28 02:34:09;;;;;;;82.05;37.70;;;;;;;17.28;82.14;99945.06;5034817;28;20052;-70
2021/05/28 02:36:34;;;;;;;66.47;37.60;;;;;;;17.12;83.26;99949.34;5043123;28;20045;-68
2021/05/28 02:39:01;;;;;;;68.72;37.53;;;;;;;17.16;82.64;99945.59;5028446;28;20052;-72
2021/05/28 02:41:27;;;;;;;65.65;37.05;;;;;;;17.10;83.20;99939.63;5029396;28;20064;-68
2021/05/28 02:43:53;;;;;;;63.47;37.95;;;;;;;17.22;82.86;99947.97;5047042;28;20080;-68
2021/05/28 02:46:19;;;;;;;78.18;39.13;;;;;;;17.14;83.05;99943.91;5047068;28;20408;-70
2021/05/28 02:48:44;;;;;;;65.32;39.85;;;;;;;17.24;82.73;99950.59;5045052;28;20041;-71
2021/05/28 02:51:10;;;;;;;70.70;39.75;;;;;;;17.09;82.97;99938.75;5047741;28;20125;-67
2021/05/28 02:53:36;;;;;;;69.30;39.00;;;;;;;17.12;83.33;99949.34;5046006;28;20068;-67
2021/05/28 02:56:06;;;;;;;62.80;36.97;;;;;;;17.47;81.84;99945.13;5044356;28;20063;-72
2021/05/28 02:58:32;;;;;;;67.03;39.33;;;;;;;17.37;82.06;99941.94;5045989;28;20139;-69
2021/05/28 03:00:58;;;;;;;67.82;38.70;;;;;;;17.41;81.54;99943.59;5027409;28;20519;-70
2021/05/28 03:03:24;;;;;;;64.57;38.08;;;;;;;17.46;81.67;99938.03;5045834;28;20041;-73
2021/05/28 03:05:50;;;;;;;60.72;37.97;;;;;;;17.75;80.40;99924.16;5025259;28;20493;-67
2021/05/28 03:08:20;;;;;;;65.47;36.95;;;;;;;17.79;80.38;99934.69;5046185;28;20079;-66
2021/05/28 03:10:46;;;;;;;65.82;37.92;;;;;;;17.66;80.24;99932.63;5016729;28;20037;-68
2021/05/28 03:13:13;;;;;;;61.85;36.40;;;;;;;17.71;80.45;99936.84;5039067;28;20048;-72
2021/05/28 03:15:39;;;;;;;62.70;37.47;;;;;;;17.51;80.98;99933.31;5034921;28;20036;-67
2021/05/28 03:18:11;;;;;;;60.90;36.35;;;;;;;17.66;80.77;99946.94;5029149;28;20057;-67
2021/05/28 03:20:38;;;;;;;61.83;32.85;;;;;;;17.61;80.99;99948.06;5042425;28;20064;-73
2021/05/28 03:23:04;;;;;;;62.28;37.53;;;;;;;17.57;81.03;99939.28;5043121;28;20127;-68
2021/05/28 03:25:30;;;;;;;63.38;36.90;;;;;;;17.50;81.69;99929.78;5014868;28;20065;-67
2021/05/28 03:27:56;;;;;;;62.50;36.55;;;;;;;17.65;81.10;99936.25;5044420;28;20092;-68
2021/05/28 03:30:22;;;;;;;64.25;36.47;;;;;;;17.68;81.30;99936.97;5042734;28;20045;-66
2021/05/28 03:32:48;;;;;;;64.70;38.67;;;;;;;17.45;81.72;99942.50;5043988;28;20507;-68
2021/05/28 03:35:14;;;;;;;61.13;37.45;;;;;;;17.49;81.34;99929.88;5045343;28;20044;-68
2021/05/28 03:37:40;;;;;;;58.92;36.22;;;;;;;17.75;80.77;99932.19;5027997;28;20053;-67
2021/05/28 03:40:08;;;;;;;60.13;36.80;;;;;;;17.42;81.65;99923.03;4997446;28;20536;-69
2021/05/28 03:42:34;;;;;;;57.08;37.88;;;;;;;17.34;82.33;99930.50;5033500;28;20091;-65
2021/05/28 03:45:02;;;;;;;58.67;37.75;;;;;;;17.17;83.32;99938.44;5008608;28;20045;-67
2021/05/28 03:47:28;;;;;;;62.40;38.42;;;;;;;17.13;83.07;99935.00;5041665;28;20040;-66
2021/05/28 03:49:54;;;;;;;57.40;37.78;;;;;;;17.52;81.72;99935.94;5026435;28;20111;-65
2021/05/28 03:52:20;;;;;;;52.20;35.67;;;;;;;17.60;81.08;99944.50;5033415;28;20457;-68
2021/05/28 03:54:45;;;;;;;59.47;37.72;;;;;;;17.50;81.58;99948.56;5045038;28;20037;-70
2021/05/28 03:57:11;;;;;;;58.20;38.30;;;;;;;17.34;82.48;99946.59;5042345;28;20066;-64
2021/05/28 03:59:37;;;;;;;54.20;37.95;;;;;;;17.19;82.33;99924.03;5045181;28;20040;-66
2021/05/28 04:02:03;;;;;;;57.63;37.20;;;;;;;17.51;81.67;99952.09;5045522;28;20040;-68
2021/05/28 04:04:31;;;;;;;55.45;36.15;;;;;;;17.51;82.13;99944.06;5041372;28;20192;-80
2021/05/28 04:06:58;;;;;;;51.72;37.47;;;;;;;17.55;81.52;99949.22;5040050;28;20043;-71
2021/05/28 04:09:24;;;;;;;62.55;37.45;;;;;;;17.57;81.29;99955.38;5035072;28;20412;-68
2021/05/28 04:11:50;;;;;;;55.22;36.33;;;;;;;17.50;81.54;99953.94;5045015;28;20505;-69
2021/05/28 04:14:17;;;;;;;55.55;37.55;;;;;;;17.65;81.23;99963.94;4992473;28;20448;-67
2021/05/28 04:16:43;;;;;;;54.65;37.55;;;;;;;17.51;81.60;99965.50;5032526;28;20095;-70
2021/05/28 04:19:09;;;;;;;60.50;38.35;;;;;;;17.62;81.30;99972.16;5035771;28;20505;-70
2021/05/28 04:21:36;;;;;;;64.18;39.45;;;;;;;17.45;82.17;99977.38;5045019;28;20051;-80
2021/05/28 04:24:04;;;;;;;61.60;39.53;;;;;;;17.43;82.03;99979.25;5045355;28;20125;-70
2021/05/28 04:26:30;;;;;;;59.15;38.70;;;;;;;17.60;81.78;99979.38;5030132;28;20099;-70
2021/05/28 04:28:56;;;;;;;63.28;39.70;;;;;;;17.44;82.09;99972.06;5044707;28;20501;-72
2021/05/28 04:31:22;;;;;;;55.25;38.55;;;;;;;17.67;81.75;99979.97;5042159;28;20131;-70
2021/05/28 04:33:48;;;;;;;57.33;38.97;;;;;;;17.60;82.03;99975.81;5010888;28;20456;-71
2021/05/28 04:36:14;;;;;;;62.65;38.80;;;;;;;17.71;81.70;99978.88;5045139;28;20041;-69
2021/05/28 04:38:39;;;;;;;60.00;39.83;;;;;;;17.70;81.85;99982.50;5044450;28;20120;-69
2021/05/28 04:41:05;;;;;;;56.92;38.70;;;;;;;17.75;81.57;99978.69;5042517;28;21869;-69
2021/05/28 04:43:31;;;;;;;60.00;39.65;;;;;;;17.58;82.07;99985.75;5043711;28;20477;-70
2021/05/28 04:45:57;;;;;;;59.05;38.00;;;;;;;17.54;82.12;99985.03;5014581;28;20545;-68
2021/05/28 04:48:23;;;;;;;56.47;38.40;;;;;;;17.64;81.85;99983.66;4981541;28;20041;-77
2021/05/28 04:50:49;;;;;;;60.05;39.35;;;;;;;17.68;81.69;99987.94;5015817;28;20944;-69
2021/05/28 04:53:15;;;;;;;58.88;39.33;;;;;;;17.41;82.45;99962.34;5043393;28;20132;-70
2021/05/28 04:55:40;;;;;;;65.10;40.47;;;;;;;17.66;81.78;99983.59;5017352;28;20505;-72
2021/05/28 04:58:06;;;;;;;58.97;37.85;;;;;;;17.97;80.38;99965.16;5042746;28;20373;-68
2021/05/28 05:00:32;;;;;;;65.55;38.85;;;;;;;17.80;81.34;99943.56;5043237;28;20053;-68
2021/05/28 05:02:59;;;;;;;62.10;38.45;;;;;;;18.04;80.75;99978.19;5043897;28;20045;-68
2021/05/28 05:05:26;;;;;;;54.65;35.92;;;;;;;18.08;80.20;99970.91;5032933;28;20472;-72
2021/05/28 05:07:53;;;;;;;58.45;39.95;;;;;;;17.73;81.55;99966.28;5013856;28;20091;-72
2021/05/28 05:10:18;;;;;;;55.95;39.33;;;;;;;17.55;81.76;99961.75;5028184;28;20347;-68
2021/05/28 05:12:44;;;;;;;61.25;41.13;;;;;;;17.38;83.17;99970.53;5044146;28;20128;-69
2021/05/28 05:15:11;;;;;;;61.83;42.03;;;;;;;17.35;83.36;99949.22;5025887;28;20496;-67
2021/05/28 05:17:38;;;;;;;55.97;40.33;;;;;;;17.36;83.53;99974.19;5012237;28;20041;-68
2021/05/28 05:20:06;;;;;;;56.70;39.97;;;;;;;17.65;83.27;99957.72;5011528;28;20488;-67
2021/05/28 05:22:32;;;;;;;55.60;37.88;;;;;;;18.05;83.66;99962.97;5026066;28;20049;-71
2021/05/28 05:24:58;;;;;;;58.05;36.50;;;;;;;18.37;82.18;99964.16;5043462;28;20930;-66
2021/05/28 05:27:24;;;;;;;51.15;37.50;;;;;;;18.35;79.82;99972.28;5026992;28;20071;-71
2021/05/28 05:29:50;;;;;;;59.97;37.25;;;;;;;18.09;81.20;99978.00;5043550;28;20061;-67
2021/05/28 05:32:16;;;;;;;53.47;38.25;;;;;;;18.02;81.51;99974.72;5024346;28;20111;-67
2021/05/28 05:34:42;;;;;;;45.50;35.00;;;;;;;17.88;81.25;99979.84;5026419;28;20045;-67
2021/05/28 05:37:08;;;;;;;57.15;39.00;;;;;;;17.91;82.01;99968.09;5026053;28;20037;-67
2021/05/28 05:39:33;;;;;;;51.53;36.80;;;;;;;17.95;81.61;99964.34;5042662;28;20050;-68
2021/05/28 05:42:01;;;;;;;63.17;40.58;;;;;;;17.50;82.44;99934.28;5009777;28;20040;-68
2021/05/28 05:44:28;;;;;;;68.63;44.65;;;;;;;17.69;83.33;99954.81;5012340;28;20041;-69
2021/05/28 05:46:54;;;;;;;68.80;46.78;;;;;;;18.16;83.30;99959.78;5029038;28;20045;-70
2021/05/28 05:49:20;;;;;;;77.70;47.17;;;;;;;18.28;82.27;99930.53;5044987;28;20049;-72
2021/05/28 05:51:46;;;;;;;65.47;43.42;;;;;;;18.63;80.81;99955.69;5046785;28;20128;-69
2021/05/28 05:54:12;;;;;;;72.40;48.83;;;;;;;18.26;79.74;99929.72;5046045;28;20161;-69
2021/05/28 05:56:38;;;;;;;63.03;44.70;;;;;;;18.83;78.76;99920.63;5025781;28;20044;-68
2021/05/28 05:59:04;;;;;;;67.60;43.80;;;;;;;19.14;77.92;99936.94;5026814;28;20056;-69
2021/05/28 06:01:30;;;;;;;56.25;39.60;;;;;;;19.25;77.12;99930.06;5046071;28;20048;-70
2021/05/28 06:03:55;;;;;;;55.90;39.00;;;;;;;19.23;76.72;99931.94;5047140;28;20040;-68
2021/05/28 06:06:23;;;;;;;58.20;38.25;;;;;;;19.43;76.51;99920.16;5046029;28;20377;-72
2021/05/28 06:08:49;;;;;;;51.97;37.42;;;;;;;19.54;75.71;99920.47;5046024;28;20801;-71
2021/05/28 06:11:15;;;;;;;55.78;39.08;;;;;;;19.48;76.76;99923.47;5046783;28;20041;-70
2021/05/28 06:13:41;;;;;;;52.28;38.80;;;;;;;19.54;75.83;99925.84;5027837;28;20092;-69
2021/05/28 06:16:07;;;;;;;50.80;40.55;;;;;;;19.51;75.74;99916.13;5027746;28;20124;-68
2021/05/28 06:18:33;;;;;;;51.28;37.60;;;;;;;19.78;74.57;99914.59;5029858;28;20071;-70
2021/05/28 06:20:59;;;;;;;45.40;36.13;;;;;;;19.99;74.22;99917.94;5045699;28;20109;-67
2021/05/28 06:23:25;;;;;;;47.25;35.92;;;;;;;19.90;74.29;99915.75;5045991;28;20420;-73
2021/05/28 06:25:51;;;;;;;52.72;35.97;;;;;;;19.66;74.47;99901.81;5044366;28;20167;-68
2021/05/28 06:28:17;;;;;;;45.05;35.13;;;;;;;19.70;74.08;99899.84;5021855;28;20072;-70
2021/05/28 06:30:43;;;;;;;43.90;34.60;;;;;;;19.62;75.13;99920.91;5024266;28;20049;-69
2021/05/28 06:33:09;;;;;;;46.78;34.90;;;;;;;19.62;75.18;99908.31;5024443;28;20132;-76
2021/05/28 06:35:38;;;;;;;50.00;34.70;;;;;;;19.73;75.38;99931.94;5024230;28;20049;-70
2021/05/28 06:38:04;;;;;;;50.47;37.28;;;;;;;19.07;76.94;99920.22;5025519;28;20344;-70
2021/05/28 06:40:31;;;;;;;48.22;38.22;;;;;;;19.02;77.79;99914.22;5025514;28;20073;-70
2021/05/28 06:43:05;;;;;;;49.42;38.10;;;;;;;19.31;76.73;99916.31;5024287;28;20041;-73
2021/05/28 06:45:31;;;;;;;43.90;36.90;;;;;;;19.25;76.88;99913.06;5022386;28;20065;-69
2021/05/28 06:47:58;;;;;;;54.80;38.55;;;;;;;19.34;76.56;99921.50;5008613;28;20470;-72
2021/05/28 06:50:24;;;;;;;53.80;38.20;;;;;;;19.35;76.38;99925.06;5022467;28;20042;-73
2021/05/28 06:52:50;;;;;;;48.50;37.15;;;;;;;19.53;75.70;99926.75;5024025;28;20563;-72
2021/05/28 06:55:16;;;;;;;59.97;39.25;;;;;;;19.72;75.54;99911.38;5007535;28;20048;-75
2021/05/28 06:57:42;;;;;;;48.97;35.92;;;;;;;20.04;74.21;99926.59;5022259;28;20594;-74
2021/05/28 07:00:10;;;;;;;45.90;35.92;;;;;;;20.33;73.00;99926.75;5023626;28;20743;-71
2021/05/28 07:02:37;;;;;;;51.20;35.80;;;;;;;20.29;72.99;99924.34;5025272;28;20110;-69
2021/05/28 07:05:05;;;;;;;49.53;32.83;;;;;;;20.19;73.69;99920.41;5024667;28;20359;-69
2021/05/28 07:07:32;;;;;;;41.90;31.73;;;;;;;20.26;73.18;99929.88;5021739;28;20052;-71
2021/05/28 07:09:59;;;;;;;46.30;30.10;;;;;;;20.39;72.52;99929.09;4991726;28;20045;-70
2021/05/28 07:12:25;;;;;;;46.97;31.20;;;;;;;20.59;72.12;99933.31;5024463;28;20045;-71
2021/05/28 07:14:51;;;;;;;45.28;28.77;;;;;;;20.75;70.44;99918.88;5024564;28;20049;-70
2021/05/28 07:17:19;;;;;;;41.28;29.20;;;;;;;20.93;69.80;99933.13;5025578;28;20048;-68
2021/05/28 07:19:45;;;;;;;35.45;25.73;;;;;;;20.98;69.84;99933.72;5025687;28;20037;-66
2021/05/28 07:22:10;;;;;;;31.80;24.83;;;;;;;20.88;69.57;99930.66;5026803;28;20183;-64
2021/05/28 07:24:36;;;;;;;37.15;24.65;;;;;;;20.93;70.12;99936.69;5023044;28;20167;-70
2021/05/28 07:27:02;;;;;;;36.38;25.60;;;;;;;21.58;68.41;99933.56;5024911;28;20045;-66
2021/05/28 07:29:28;;;;;;;30.13;24.15;;;;;;;21.34;68.68;99936.91;5024869;28;20187;-70
2021/05/28 07:31:54;;;;;;;33.67;24.00;;;;;;;21.15;69.02;99929.06;5004843;28;20052;-74
2021/05/28 07:34:21;;;;;;;27.55;22.15;;;;;;;21.55;67.68;99928.34;5022892;28;20057;-68
2021/05/28 07:36:48;;;;;;;31.05;22.65;;;;;;;22.14;65.11;99934.56;5025136;28;20425;-65
2021/05/28 07:39:13;;;;;;;31.42;22.50;;;;;;;22.37;64.19;99932.06;5024378;28;20045;-65
2021/05/28 07:41:39;;;;;;;29.58;20.98;;;;;;;22.12;65.36;99931.94;5020606;28;20497;-72
2021/05/28 07:44:06;;;;;;;29.13;18.63;;;;;;;23.84;61.02;99939.94;5022937;28;20044;-66
2021/05/28 07:46:33;;;;;;;24.42;18.20;;;;;;;24.13;58.28;99927.94;5024648;28;20061;-67
2021/05/28 07:48:59;;;;;;;25.15;17.13;;;;;;;24.47;57.11;99930.75;5004107;28;20465;-77
2021/05/28 07:51:25;;;;;;;24.40;13.95;;;;;;;24.71;56.32;99938.94;5023101;28;20460;-65
2021/05/28 07:53:50;;;;;;;16.48;13.27;;;;;;;24.31;55.42;99924.72;5023389;28;20045;-65
2021/05/28 07:56:16;;;;;;;19.55;14.57;;;;;;;24.24;55.93;99919.84;5019973;28;20374;-66
2021/05/28 07:58:45;;;;;;;24.17;14.48;;;;;;;24.69;55.29;99924.63;5022205;28;20079;-71
2021/05/28 08:01:11;;;;;;;23.88;14.15;;;;;;;25.97;51.93;99909.97;5021535;28;20038;-70
2021/05/28 08:03:37;;;;;;;29.05;13.52;;;;;;;26.74;49.78;99909.03;5021656;28;20071;-67
2021/05/28 08:06:02;;;;;;;14.82;9.80;;;;;;;26.67;47.86;99921.41;5022700;28;20088;-65
2021/05/28 08:08:28;;;;;;;20.83;8.75;;;;;;;26.69;46.59;99933.03;5021454;28;20065;-67
2021/05/28 08:10:55;;;;;;;12.98;7.18;;;;;;;26.63;45.61;99926.25;5023673;28;20046;-65
2021/05/28 08:13:21;;;;;;;15.32;6.95;;;;;;;28.22;42.24;99920.44;5021234;28;20061;-65
2021/05/28 08:15:48;;;;;;;13.25;5.50;;;;;;;29.00;39.13;99923.25;5000866;28;20037;-78
2021/05/28 08:18:14;;;;;;;12.70;5.80;;;;;;;29.17;38.24;99930.72;5004690;28;20111;-64
2021/05/28 08:20:40;;;;;;;8.70;7.00;;;;;;;27.49;42.00;99922.44;5015389;28;20476;-67
2021/05/28 08:23:06;;;;;;;8.43;6.68;;;;;;;27.30;42.14;99910.53;5022010;28;20076;-67
2021/05/28 08:25:32;;;;;;;17.50;6.68;;;;;;;28.48;40.18;99915.38;5018822;28;20049;-64
2021/05/28 08:27:58;;;;;;;10.75;4.82;;;;;;;29.55;33.51;99906.94;5016349;28;20103;-63
2021/05/28 08:30:23;;;;;;;10.82;5.43;;;;;;;31.90;32.75;99922.25;5022101;28;20060;-70
2021/05/28 08:32:49;;;;;;;13.98;5.60;;;;;;;31.06;32.56;99914.66;5021625;28;20049;-72
2021/05/28 08:35:15;;;;;;;13.40;5.60;;;;;;;32.07;30.66;99904.00;5016958;28;20719;-66
2021/05/28 08:37:42;;;;;;;8.27;4.78;;;;;;;33.56;29.03;99917.66;5023765;28;20049;-69
2021/05/28 08:40:09;;;;;;;14.00;5.90;;;;;;;31.29;31.70;99898.59;4989652;28;20052;-65
2021/05/28 08:42:35;;;;;;;10.18;5.00;;;;;;;31.35;31.78;99900.69;5020480;28;20041;-70
2021/05/28 08:45:03;;;;;;;7.85;5.65;;;;;;;29.55;34.77;99881.50;4999819;28;20448;-67
2021/05/28 08:47:29;;;;;;;7.20;5.32;;;;;;;31.71;30.99;99895.00;5004907;28;20062;-67
2021/05/28 08:49:56;;;;;;;8.88;5.55;;;;;;;32.75;29.80;99902.94;5023382;28;20049;-75
2021/05/28 08:52:23;;;;;;;13.10;5.13;;;;;;;31.76;29.91;99889.03;5022203;28;20068;-66
2021/05/28 08:54:50;;;;;;;8.43;5.43;;;;;;;29.26;34.20;99878.81;5019889;28;21132;-66
2021/05/28 08:57:22;;;;;;;9.73;6.30;;;;;;;29.22;34.30;99881.97;5021041;28;20163;-67
2021/05/28 08:59:49;;;;;;;9.55;4.90;;;;;;;27.84;36.35;99894.88;5020320;28;20520;-64
2021/05/28 09:02:41;;;;;;;10.75;5.10;;;;;;;28.14;37.06;99892.97;5005722;28;20127;-64
2021/05/28 09:05:08;;;;;;;;;;;;;;;29.79;33.39;99892.81;5019963;28;20544;-63
2021/05/28 09:07:34;;;;;;;8.82;5.72;;;;;;;28.84;35.91;99893.72;5013795;28;19917;-67
2021/05/28 09:10:00;;;;;;;9.18;5.95;;;;;;;29.13;34.78;99893.75;5022845;28;20068;-69
2021/05/28 09:12:28;;;;;;;10.30;5.90;;;;;;;30.71;32.25;99880.88;5021970;28;20045;-78
2021/05/28 09:14:55;;;;;;;10.18;5.38;;;;;;;30.41;32.50;99894.88;5022301;28;20045;-71
2021/05/28 09:17:21;;;;;;;10.30;5.45;;;;;;;29.92;32.52;99879.69;5005472;28;20053;-64
2021/05/28 09:19:56;;;;;;;7.30;4.80;;;;;;;29.90;32.38;99891.78;5027090;28;20037;-70
2021/05/28 09:22:32;;;;;;;11.70;5.30;;;;;;;29.53;32.51;99883.50;5022461;28;20041;-67
2021/05/28 09:25:02;;;;;;;17.85;4.43;;;;;;;29.23;32.95;99876.34;5021709;28;20045;-69
2021/05/28 09:27:33;;;;;;;10.15;5.05;;;;;;;29.39;33.28;99884.81;5007812;28;20049;-69
2021/05/28 09:30:12;;;;;;;8.13;4.13;;;;;;;28.61;34.07;99875.03;5047528;28;20394;-72
2021/05/28 09:32:44;;;;;;;8.98;4.38;;;;;;;28.11;34.67;99860.50;5011896;28;20068;-75
2021/05/28 09:35:12;;;;;;;10.30;5.32;;;;;;;28.38;35.31;99874.38;5043698;28;20302;-74
2021/05/28 09:37:47;;;;;;;12.70;4.65;;;;;;;31.00;29.97;99881.53;5046344;28;20483;-67
2021/05/28 09:40:28;;;;;;;5.80;4.50;;;;;;;31.87;29.17;99873.19;5044850;28;20044;-81
2021/05/28 09:43:04;;;;;;;13.23;4.68;;;;;;;32.75;28.30;99883.69;5038277;28;20064;-74
2021/05/28 09:45:36;;;;;;;7.50;4.50;;;;;;;34.23;24.68;99864.91;5046746;28;20078;-71
2021/05/28 09:48:22;;;;;;;7.55;4.40;;;;;;;34.65;24.32;99870.94;5048413;28;20045;-74
2021/05/28 09:50:57;;;;;;;9.18;4.63;;;;;;;35.30;24.20;99880.50;5012148;28;20041;-68
2021/05/28 09:53:30;;;;;;;6.03;4.00;;;;;;;35.05;23.55;99887.25;5027352;28;20139;-69
2021/05/28 09:55:58;;;;;;;10.05;4.28;;;;;;;34.14;24.98;99869.59;5012035;28;20048;-65
2021/05/28 09:58:24;;;;;;;8.63;4.88;;;;;;;33.82;24.80;99864.19;5046058;28;20127;-71
2021/05/28 10:00:52;;;;;;;9.65;5.32;;;;;;;33.26;25.79;99854.06;5046527;28;20160;-63
2021/05/28 10:03:23;;;;;;;9.20;4.72;;;;;;;33.31;25.64;99862.63;5024409;28;20075;-68
2021/05/28 10:05:58;;;;;;;7.60;4.53;;;;;;;30.27;29.90;99862.53;5029451;28;20039;-81
2021/05/28 10:08:27;;;;;;;7.90;4.50;;;;;;;28.20;33.40;99845.19;5004687;28;20644;-72
2021/05/28 10:10:58;;;;;;;10.82;6.15;;;;;;;27.78;34.62;99843.56;5029298;28;20060;-67
2021/05/28 10:13:25;;;;;;;11.90;6.60;;;;;;;29.06;32.83;99837.97;5041823;28;20041;-77
2021/05/28 10:15:53;;;;;;;13.55;6.53;;;;;;;29.95;31.85;99843.81;5046705;28;20044;-66
2021/05/28 10:18:20;;;;;;;15.90;7.40;;;;;;;29.62;33.03;99829.84;5012028;28;20579;-66
2021/05/28 10:20:48;;;;;;;14.25;6.57;;;;;;;27.97;37.47;99841.81;4996389;28;20056;-74
2021/05/28 10:23:15;;;;;;;14.10;6.57;;;;;;;27.79;38.52;99828.94;5045452;28;20052;-68
2021/05/28 10:25:42;;;;;;;17.75;7.72;;;;;;;27.28;40.22;99833.53;5028588;28;20393;-67
2021/05/28 10:28:19;;;;;;;15.57;7.97;;;;;;;26.66;39.94;99814.41;5000206;28;20071;-74
2021/05/28 10:30:47;;;;;;;13.80;7.97;;;;;;;26.91;40.15;99826.81;5042792;28;20079;-68
2021/05/28 10:33:21;;;;;;;20.23;7.75;;;;;;;26.98;40.22;99811.69;5009651;28;20467;-68
2021/05/28 10:35:49;;;;;;;8.45;6.15;;;;;;;26.24;39.79;99798.97;4996769;28;20394;-77
2021/05/28 10:38:29;;;;;;;12.10;6.78;;;;;;;26.16;40.44;99808.75;5011141;28;20584;-70
2021/05/28 10:41:18;;;;;;;17.05;7.43;;;;;;;26.33;39.83;99817.25;5042342;28;20049;-70
2021/05/28 10:43:50;;;;;;;10.35;7.07;;;;;;;26.22;40.13;99825.41;5041231;28;20055;-70
2021/05/28 10:46:18;;;;;;;12.60;6.70;;;;;;;26.25;40.69;99810.69;5013518;28;20590;-70
2021/05/28 10:48:43;;;;;;;13.60;6.65;;;;;;;26.11;40.85;99819.16;5015672;28;20041;-70
2021/05/28 10:51:15;;;;;;;14.07;6.95;;;;;;;26.01;40.64;99826.31;5036086;28;20498;-69
2021/05/28 10:54:01;;;;;;;13.60;6.77;;;;;;;25.72;41.51;99818.66;4996566;28;20040;-69
2021/05/28 10:56:48;;;;;;;13.10;7.35;;;;;;;25.54;42.12;99803.88;5013440;28;20280;-75
2021/05/28 10:59:23;;;;;;;15.45;6.70;;;;;;;25.39;42.88;99809.66;5005348;28;20174;-68
2021/05/28 11:01:56;;;;;;;12.00;6.57;;;;;;;25.40;43.56;99812.25;5041579;28;20041;-72
2021/05/28 11:04:43;;;;;;;11.93;7.60;;;;;;;25.06;43.98;99802.31;5009991;28;20114;-70
2021/05/28 11:07:09;;;;;;;11.90;7.20;;;;;;;25.14;44.48;99812.56;5040327;28;20081;-70
2021/05/28 11:09:47;;;;;;;10.18;5.47;;;;;;;24.89;41.60;99812.75;5044327;28;20068;-68
2021/05/28 11:12:34;;;;;;;11.52;4.72;;;;;;;24.53;41.09;99802.84;5028058;28;20068;-72
2021/05/28 11:15:08;;;;;;;13.13;5.43;;;;;;;24.66;41.98;99808.22;5007744;28;20060;-70
2021/05/28 11:18:04;;;;;;;14.80;5.55;;;;;;;24.66;42.66;99809.13;5008514;28;20044;-69
2021/05/28 11:20:34;;;;;;;12.07;6.05;;;;;;;24.58;43.72;99805.22;5042837;28;20037;-68